createdAt,value
2018-11-02T00:00:46.462Z,3.40
2018-11-02T00:05:57.691Z,2.50
2018-11-02T00:11:09.639Z,2.00
2018-11-02T00:16:27.281Z,1.80
2018-11-02T00:21:38.855Z,1.70
2018-11-02T00:27:03.182Z,1.20
2018-11-02T00:32:15.210Z,1.00
2018-11-02T00:37:24.631Z,1.40
2018-11-02T00:42:36.333Z,1.30
2018-11-02T00:47:49.137Z,1.40
2018-11-02T00:53:02.661Z,1.20
2018-11-02T00:58:25.111Z,1.40
2018-11-02T01:03:37.442Z,1.60
2018-11-02T01:14:02.006Z,3.00
2018-11-02T01:19:14.864Z,1.60
2018-11-02T01:24:27.848Z,1.30
2018-11-02T01:34:53.240Z,2.50
2018-11-02T01:40:10.879Z,2.00
2018-11-02T01:45:19.034Z,1.80
2018-11-02T01:50:31.190Z,2.20
2018-11-02T01:55:46.907Z,2.90
2018-11-02T02:00:59.036Z,3.40
2018-11-02T02:06:17.006Z,2.60
2018-11-02T02:11:37.059Z,2.70
2018-11-02T02:16:44.778Z,3.90
2018-11-02T02:21:59.693Z,3.30
2018-11-02T02:27:08.654Z,3.60
2018-11-02T02:32:29.843Z,5.00
2018-11-02T02:37:39.307Z,4.60
2018-11-02T02:42:55.390Z,4.60
2018-11-02T02:48:12.903Z,4.80
2018-11-02T03:03:55.219Z,7.10
2018-11-02T03:09:02.734Z,6.50
2018-11-02T03:14:12.761Z,7.30
2018-11-02T03:19:40.123Z,7.80
2018-11-02T03:24:47.575Z,7.30
2018-11-02T03:30:13.486Z,8.00
2018-11-02T03:35:24.733Z,7.50
2018-11-02T03:51:03.010Z,9.50
2018-11-02T03:56:17.586Z,9.40
2018-11-02T04:01:38.686Z,11.40
2018-11-02T04:06:53.295Z,9.90
2018-11-02T04:12:07.002Z,12.40
2018-11-02T04:17:20.818Z,11.70
2018-11-02T04:22:34.246Z,14.60
2018-11-02T04:33:07.791Z,15.90
2018-11-02T04:38:22.452Z,13.20
2018-11-02T04:43:39.699Z,15.90
2018-11-02T04:48:57.323Z,18.00
2018-11-02T04:59:32.349Z,19.40
2018-11-02T05:04:49.780Z,18.50
2018-11-02T05:10:07.622Z,16.30
2018-11-02T05:25:48.204Z,20.50
2018-11-02T05:31:02.539Z,21.80
2018-11-02T05:36:28.558Z,11.90
2018-11-02T05:57:28.003Z,18.40
2018-11-02T06:23:38.682Z,18.00
2018-11-02T07:57:36.811Z,19.70
2018-11-02T08:50:51.879Z,13.10
2018-11-02T08:56:39.613Z,13.30
2018-11-02T09:02:01.724Z,10.40
2018-11-02T09:34:50.221Z,12.60
2018-11-02T09:40:08.294Z,15.10
2018-11-02T10:07:59.812Z,10.70
2018-11-02T10:19:30.065Z,11.20
2018-11-02T10:24:48.906Z,10.40
2018-11-02T10:30:11.775Z,10.80
2018-11-02T10:35:22.587Z,9.20
2018-11-02T10:40:52.179Z,9.80
2018-11-02T10:45:58.715Z,9.60
2018-11-02T10:51:05.442Z,8.70
2018-11-02T10:56:44.250Z,7.30
2018-11-02T11:02:11.538Z,5.90
2018-11-02T11:07:47.814Z,6.50
2018-11-02T11:13:07.496Z,6.90
2018-11-02T11:24:33.759Z,6.20
2018-11-02T11:30:16.859Z,8.20
2018-11-02T11:35:32.157Z,6.00
2018-11-02T11:40:37.189Z,7.00
2018-11-02T11:46:03.710Z,5.50
2018-11-02T11:51:00.241Z,4.40
2018-11-02T11:56:10.708Z,4.60
2018-11-02T12:07:03.901Z,4.90
2018-11-02T12:17:57.363Z,4.30
2018-11-02T12:22:51.995Z,4.10
2018-11-02T12:27:56.296Z,4.10
2018-11-02T12:37:28.676Z,2.30
2018-11-02T12:48:51.071Z,5.60
2018-11-02T12:53:52.631Z,2.20
2018-11-02T13:28:18.061Z,3.60
2018-11-02T13:57:30.077Z,1.60
2018-11-02T14:02:31.417Z,7.20
2018-11-02T14:25:59.190Z,2.10
2018-11-02T14:30:47.682Z,1.90
2018-11-02T14:35:43.849Z,3.20
2018-11-02T14:40:50.130Z,1.60
2018-11-02T14:45:51.058Z,2.10
2018-11-02T14:50:52.070Z,3.30
2018-11-02T14:56:20.164Z,2.20
2018-11-02T15:01:33.905Z,2.10
2018-11-02T15:06:32.629Z,1.40
2018-11-02T15:11:39.687Z,4.00
2018-11-02T15:17:10.521Z,3.50
2018-11-02T15:45:47.581Z,3.90
2018-11-02T15:51:18.934Z,15.10
2018-11-02T15:56:26.381Z,3.80
2018-11-02T16:01:33.353Z,3.90
2018-11-02T16:06:45.837Z,3.60
2018-11-02T16:11:58.542Z,5.00
2018-11-02T16:17:15.986Z,3.00
2018-11-02T16:22:32.560Z,4.60
